View Sortable Currents For Network
ASOSAWOSCoCoRaHSCOOPDCPISUSM
SchoolNetOtherSCANMy FavoritesBy StateRWIS
RWIS SurfaceRWIS TrafficRWIS SoilBy NWS WFOUSCRN
Select Network:
Include METARS:
Sort Order: Format:

Times shown are for timezone: America/Chicago. The local day summary is based on that timezone.
Table sorted by: (Observation Time)     Click on a column to sort it. Click on site ID for more information. You can download data from this network here and you can view daily summaries on this network.
ADD: ID Station Ob Time Present Wx Temps °F   Wind [knots] Precip Clouds
Air Hi Lo Dewp Feels RH % Alti Vsby Speed Drct Gust @ Time 1 Hour Today Level 1 Level 2 Level 3 Level 4
SQISTERLING ROCKFAL11:09 AMBR303012 28 24 93 30.29 2 5WSW5 @ 10:11 AM0 T SCT 400
BMIBLOOMINGTON/NORM10:56 AMHZ333310 28 27 81 30.31 5 6W8 @ 10:35 AM0 CLR
MVNMOUNT VERNON10:56 AM353514 25 35 66 30.34 10 0N5 @ 03:10 AM0 0 CLR
SFYSavanna10:56 AMBR282816 27 23 93 30.28 5 4SSW5 @ 12:56 AM0 CLR
BLVSCOTT AFB/BELLEV10:56 AM323217 22 28 68 30.34 10 3NNW6 @ 12:56 AM0 CLR
PRGPARIS10:55 AMBR242411 22 24 94 30.33 1.25 0N5 @ 06:35 AM0 OVC 400
MQBMACOMB MUNI10:55 AM303011 26 22 84 30.34 7 8W8 @ 10:35 AM0 CLR
PNTPONTIAC10:55 AMFZFG222213 22 22 98 30.32 0.25 0N4 @ 01:15 AM0 OVC 200
VYSPERU10:55 AMBR292914 27 23 95 30.31 4 4W4 @ 12:35 AM0 CLR
OLYOLNEY-NOBLE10:55 AMBR252618 23 19 93 30.34 1 4N6 @ 02:15 AM0 OVC 300
IJXJACKSONVILLE10:55 AMBR26269 25 19 96 30.34 4 5W6 @ 10:35 AM0 CLR
1H2EFFINGHAM10:55 AMFZFG252517 24 25 98 30.35 0.25 0N5 @ 12:15 AM0 OVC 300
SARSPARTA10:55 AM292919 25 25 86 30.37 10 3NW6 @ 02:15 AM0 CLR
FWCFAIRFIELD10:55 AM323220 25 32 73 30.32 10 0N5 @ 01:15 AM0 CLR
IGQCHICAGO/LANSING10:55 AM262614 25 20 97 30.29 7 4SSW4 @ 10:55 AM0 CLR
TIPRANTOUL 10:55 AMFZFG232314 21 23 95 30.31 0.25 0N4 @ 12:55 AM0 OVC 300
AAALincoln10:55 AMBR272716 26 27 98 30.33 3 0N3 @ 02:15 AM0 CLR
CIRCairo10:55 AM323223 23 27 68 30.33 10 4NNE9 @ 12:35 AM0 CLR
FEPFREEPORT10:55 AMBR25259 25 17 100 30.28 3 6WSW6 @ 10:55 AM0 CLR
RSVRobinson10:55 AMBR222214 22 17 99 30.36 0.75 3NW6 @ 08:15 AM0 OVC 200
PPQPITTSFIELD10:55 AM303011 24 25 78 30.35 7 4NW5 @ 09:55 AM0 CLR
TAZTAYLORVILLE10:55 AMBR252512 24 25 96 30.34 0.75 0N4 @ 12:15 AM0 BKN 500
C09MORRIS-WASHBURN10:55 AMFZFG22229 21 22 95 30.3 0.25 0N3 @ 12:55 AM0 OVC 200
DNVDANVILLE10:55 AMBR232312 23 23 100 30.29 1.5 0N5 @ 12:15 AM0 OVC 500
GBGGALESBURG10:55 AM29298 29 23 100 30.31 7 5SW5 @ 10:55 AM0 CLR
M30Metropolis IL10:55 AM323222 22 26 30.33 10 5N6 @ 12:35 AM0 CLR
AJGMount Carmel10:55 AM323217 25 29 74 30.32 10 3NNE7 @ 12:35 AM0 CLR
DKBDE KALB10:55 AMBR282812 27 19 98 30.27 5 7W9 @ 10:35 AM0 CLR
FOAFLORA10:55 AMFZFG262720 25 20 96 30.35 0.5 4NNW7 @ 12:15 AM0 OVC 200
HSBHARRISBURG10:55 AM323219 25 32 75 30.35 7 0N8 @ 03:35 AM0 CLR
IKKKANKAKEE10:55 AMFZFG202012 18 20 92 30.32 0.25 0N0 OVC 100
ENLCENTRALIA10:55 AMHZ323219 27 32 82 30.33 5 0N0 CLR
UGNWAUKEGAN10:55 AMHZ313115 24 24 76 30.23 5 6N8 @ 10:20 AM0 CLR
SLOSALEM/LECKRONE10:55 AMHZ323220 25 32 30.34 5 0N4 @ 12:35 AM0 CLR
C75LACON10:55 AMHZ282812 23 21 82 30.31 5 6WSW6 @ 10:55 AM0 CLR
I63Mount Sterling10:55 AM303010 24 24 79 30.33 7 5W6 @ 09:15 AM0 CLR
06CChicago - Schaumburg 10:55 AM292913 23 24 78 30.26 10 4WSW4 @ 10:55 AM0 CLR
JOTJOLIET10:55 AMBR222210 22 22 98 30.3 2 0N4 @ 09:35 AM0 OVC 500
LOTROMEOVILLE/CHI10:55 AMBR242411 23 17 95 30.29 5 5SW5 @ 09:55 AM0 CLR
RPJRochelle10:55 AMBR232311 23 15 99 30.29 1.5 5SW5 @ 10:55 AM0 OVC 200
3LFLitchfield10:55 AMBR282814 25 24 91 30.35 4 3WNW6 @ 12:15 AM0 CLR
RFDROCKFORD10:54 AMHZ292916 23 22 78 30.28 4 6SSW6 @ 10:54 AM0 FEW 1000
UINQUINCY10:54 AMBR282812 24 22 85 30.33 4 5W6 @ 09:20 AM0 CLR
DECDECATUR10:54 AMBR27289 23 22 85 30.32 3 4NNW6 @ 02:50 AM0 CLR
PIAPEORIA10:54 AMHZ303013 24 25 78 30.32 5 4W7 @ 10:30 AM0 CLR
MTOMATTOON/CHARLEST10:53 AMFZFG242412 22 24 91 30.32 0.25 0N7 @ 03:45 AM0 T VV 200
CMICHAMPAIGN/URBANA10:53 AMFZFG23239 21 23 92 30.32 0.25 0N7 @ 04:30 AM0 VV 100
CPSCAHOKIA/ST LOUIS10:53 AMHZ303016 24 30 78 30.36 6 0N4 @ 08:00 AM0 CLR
LWVLAWRENCEVILLE10:53 AMHZ333318 24 30 69 30.33 6 3NNE9 @ 12:25 AM0 CLR
MDWCHICAGO10:53 AM292917 20 23 69 30.28 10 5WSW7 @ 10:50 AM0 CLR
DPACHICAGO/DUPAGE10:52 AMBR272712 23 18 85 30.27 5 8W8 @ 10:52 AM0 CLR
ARRCHICAGO/AURORA10:52 AMHZ282815 23 21 81 30.28 3 6SW6 @ 12:05 AM0 CLR
MDHCARBONDALE/MURPH10:52 AMHZ313119 24 26 76 30.35 5 4WNW8 @ 05:05 AM0 CLR
PWKPALWAUKEE10:52 AM323215 21 24 30.27 8 9WSW9 @ 10:52 AM0 CLR
SPISPRINGFIELD10:52 AMBR25259 22 18 88 30.34 5 5SW5 @ 10:52 AM0 CLR
MLIMoline10:52 AMHZ333314 25 26 72 30.29 6 7WSW8 @ 10:35 AM0 CLR
CULCarmi10:52 AM343416 25 31 69 30.32 10 3NNW7 @ 03:12 AM0 CLR
ORDCHICAGO O HARE10:51 AM303016 22 22 71 30.26 9 8W18 @ 10:20 AM0 CLR
ALNALTON/ST LOUIS R10:50 AM282814 25 23 86 30.35 7 4N5 @ 08:50 AM0 FEW 25000
MWAMARION REGIONAL10:45 AM303018 23 25 74 30.35 7 4WNW6 @ 08:45 AM0 SCT 20000